Phoenix, Arizona
Traffic Map
Current Weather Conditions
Phoenix, Arizona
Clear
Clear
39°
Feels Like: 39°
Wind Chill: 39° Ceiling: Unl
Heat Index: 39° Visibility: 10mi
Dew Point: Wind: 3mph
Humidity: 17% Direction: 220° (SW)
Pressure: 29.84in Gusts: 0mph
Raw Report DataKPHX 230451Z 22003KT 10SM CLR 39/09 A2984 RMK AO2 SLP082 T03890094
Traffic Incident Summary
Active as of:
Severity:
Category:
InformationThere was an issue retrieving the traffic information for this location. Please try a different location or try again shortly.
Advertisements
Track Severe Weather on mobile